Mc Cool, Mississippi
Current Conditions -  °F | °C
As of 4:55 AM on Monday 20 Oct 2014 (Local Time) from KGTR Reporting Station
Overcast Overcast  
Wind Chill: 43°   Ceiling: 200
Heat Index: 43°   Visibility: 2mi
Dew Point: 37°   Wind: 3mph
Humidity: 81%   Direction: 310°NW
Pressure: 30.08"   Gusts: NA
Location:  33.1664°N, 89.3301°W
Report Text: KGTR 200955Z AUTO 31003KT 2SM OVC002 06/03 A3008 RMK AO1
Loading
Personal Weather Stations






























Interactive Weather Map New forecast layout! Learn more

10-Day Weather Forecast

Advertisements
Track Severe Weather on mobile